To NAV CANADA Home Page Login to a new session Search on AWWS site Feedback and Comments Disclaimer Vers la page française équivalente Tips FAQ What's new on the site To the Forecasts and Observations / NOTAM section To "File a Flight Plan" website Publications and other links Update of the User's profile FIC Telephone Numbers My Weather Data Folder Route Weather Data Regional Weather Data Local Weather Data To the Forecasts and Observations / NOTAM section
Request Generated 04/26/2015 at 04:50:40 UTC . Weather information available at that time is displayed.

METAR/TAF

TRENTON/ON    

METAR CYTR 260400Z 04002KT 15SM OVC066 06/03 A2980 RMK AC8 SLP094=
METAR CYTR 260300Z 10002KT 15SM BKN066 06/02 A2980 RMK AC7 SLP093=
METAR CYTR 260200Z 23004KT 15SM BKN068 07/02 A2979 RMK AC7 SLP092=

TAF CYTR 252330Z 2600/2624 21008KT P6SM SCT070
BECMG 2603/2605 01008KT
FM260500 01008KT P6SM SCT050
FM261000 35008KT P6SM BKN030
RMK NXT FCST BY 260600Z=
Your time UTC time
Weather data provided by Environment Canada and NAV CANADA